Flight Track Log - Related Links

Times and Time Zones

All times are in EDT time to prevent confusion due to time zone crossing. See the CSJ405 flight status page for this flight to view local times or setup timezone preferences in your user account.

Time Position Orientation Groundspeed Altitude Reporting Facility
EDT Latitude Longitude Course Direction KTS MPH feet Rate Location/Type
Wed 09:38:43 PM 43.1383 -77.6642 346° North 115 132 1,500  Level Cleveland Center
Wed 09:39:43 PM 43.1681 -77.6825 336° Northwest 135 155 2,700 1,140 Climbing Cleveland Center
Wed 09:40:44 PM 43.1875 -77.7186 306° West 112 129 3,800 694 Climbing Cleveland Center
Wed 09:41:44 PM 43.1867 -77.7700 269° West 156 180 4,100 109 Climbing Cleveland Center
Wed 09:43:29 PM 43.2000 -77.8833 279° West 175 201 4,100  Level Buffalo TRACON
Wed 09:44:13 PM 43.1833 -77.9000 216° Southwest 170 196 4,100  Level Toronto Center
Wed 09:46:29 PM 43.1833 -78.0667 270° West 171 197 4,100  Level Buffalo TRACON
Wed 09:47:35 PM 43.2000 -78.1500 285° West 172 198 4,100  Level Buffalo TRACON
Wed 09:47:50 PM 43.1667 -78.1500 180° South 170 196 4,100  Level Toronto Center
Wed 09:48:50 PM 43.1667 -78.2000 270° West 170 196 4,100  Level Toronto Center
Wed 09:49:50 PM 43.1667 -78.2667 270° West 170 196 4,100  Level Toronto Center
Wed 09:50:50 PM 43.1667 -78.3333 270° West 170 196 4,100  Level Toronto Center
Wed 09:51:50 PM 43.1667 -78.4000 270° West 170 196 4,100  Level Toronto Center
Wed 09:52:50 PM 43.1667 -78.4667 270° West 170 196 4,100  Level Toronto Center
Wed 09:53:50 PM 43.1833 -78.5333 289° West 170 196 4,100  Level Toronto Center
Wed 09:54:50 PM 43.1833 -78.5833 270° West 170 196 4,100  Level Toronto Center
Wed 09:55:50 PM 43.1833 -78.6500 270° West 170 196 4,100  Level Toronto Center
Wed 09:56:50 PM 43.1833 -78.7167 270° West 170 196 4,100  Level Toronto Center
Wed 09:57:50 PM 43.1833 -78.7833 270° West 170 196 4,100  Level Toronto Center
Wed 09:58:50 PM 43.1833 -78.8500 270° West 170 196 4,100  Level Toronto Center
Wed 09:59:50 PM 43.1833 -78.9000 270° West 170 196 4,100  Level Toronto Center
Wed 10:00:50 PM 43.1833 -78.9667 270° West 170 196 4,100  Level Toronto Center
Wed 10:01:50 PM 43.1833 -79.0333 270° West 170 196 4,100  Level Toronto Center
Wed 10:02:50 PM 43.1667 -79.1000 251° West 170 196 4,100  Level Toronto Center
Wed 10:03:50 PM 43.1667 -79.1833 270° West 170 196 4,100  Level Toronto Center
Wed 10:04:50 PM 43.1667 -79.2167 270° West 170 196 4,100  Level Toronto Center
Wed 10:05:50 PM 43.1667 -79.2833 270° West 170 196 4,100  Level Toronto Center
Wed 10:06:50 PM 43.1667 -79.3667 270° West 170 196 4,100  Level Toronto Center
Wed 10:07:50 PM 43.1667 -79.4333 270° West 170 196 4,100 -113 Level Toronto Center
Wed 10:09:30 PM 43.1833 -79.5500 281° West 169 194 3,800 -250 Descending Buffalo TRACON
Wed 10:09:50 PM 43.1667 -79.5667 216° Southwest 180 207 3,600 -450 Descending Toronto Center
Wed 10:10:50 PM 43.1667 -79.6333 270° West 180 207 3,200 -300 Descending Toronto Center
Wed 10:11:50 PM 43.1667 -79.6833 270° West 180 207 3,000 -250 Descending Toronto Center
Wed 10:12:50 PM 43.1833 -79.7500 289° West 170 196 2,700 -350 Descending Toronto Center
Wed 10:13:50 PM 43.1833 -79.8167 270° West 180 207 2,300 -750 Descending Toronto Center
Wed 10:14:50 PM 43.1833 -79.8833 270° West 170 196 1,200 -700 Descending Toronto Center
Wed 10:15:50 PM 43.1667 -79.9000 216° Southwest 90 104 900 -150 Descending Toronto Center
Wed 10:16:50 PM 43.1500 -79.9000 180° South 30 35 900  Level Toronto Center

Login

Don't have an account? Register now (free) for customized features, flight alerts, and more!